sensor_id;sensor_type;location;lat;lon;timestamp;P1;durP1;ratioP1;P2;durP2;ratioP2
7545;SDS011;3814;51.454;12.616;2023-03-24T00:00:15;4.22;;;1.80;;
7545;SDS011;3814;51.454;12.616;2023-03-24T00:02:42;2.85;;;1.70;;
7545;SDS011;3814;51.454;12.616;2023-03-24T00:05:13;2.90;;;1.80;;
7545;SDS011;3814;51.454;12.616;2023-03-24T00:07:40;2.78;;;1.73;;
7545;SDS011;3814;51.454;12.616;2023-03-24T00:10:07;2.63;;;1.70;;
7545;SDS011;3814;51.454;12.616;2023-03-24T00:12:35;2.88;;;1.60;;
7545;SDS011;3814;51.454;12.616;2023-03-24T00:15:03;3.83;;;1.50;;
7545;SDS011;3814;51.454;12.616;2023-03-24T00:17:30;2.72;;;1.60;;
7545;SDS011;3814;51.454;12.616;2023-03-24T00:19:55;3.63;;;1.80;;
7545;SDS011;3814;51.454;12.616;2023-03-24T00:22:21;2.55;;;1.50;;
7545;SDS011;3814;51.454;12.616;2023-03-24T00:24:47;4.35;;;1.90;;
7545;SDS011;3814;51.454;12.616;2023-03-24T00:27:13;2.88;;;1.60;;
7545;SDS011;3814;51.454;12.616;2023-03-24T00:29:39;3.30;;;1.70;;
7545;SDS011;3814;51.454;12.616;2023-03-24T00:32:05;2.78;;;1.60;;
7545;SDS011;3814;51.454;12.616;2023-03-24T00:34:32;3.30;;;1.58;;
7545;SDS011;3814;51.454;12.616;2023-03-24T00:36:58;3.05;;;1.60;;
7545;SDS011;3814;51.454;12.616;2023-03-24T00:39:23;2.80;;;1.73;;
7545;SDS011;3814;51.454;12.616;2023-03-24T00:41:49;3.38;;;1.80;;
7545;SDS011;3814;51.454;12.616;2023-03-24T00:44:14;2.75;;;1.65;;
7545;SDS011;3814;51.454;12.616;2023-03-24T00:49:10;3.80;;;1.77;;
7545;SDS011;3814;51.454;12.616;2023-03-24T00:51:38;5.05;;;2.13;;
7545;SDS011;3814;51.454;12.616;2023-03-24T00:54:05;3.42;;;1.63;;
7545;SDS011;3814;51.454;12.616;2023-03-24T00:56:32;3.28;;;1.60;;
7545;SDS011;3814;51.454;12.616;2023-03-24T00:58:58;3.20;;;1.83;;
7545;SDS011;3814;51.454;12.616;2023-03-24T01:01:27;3.50;;;1.77;;
7545;SDS011;3814;51.454;12.616;2023-03-24T01:04:00;3.83;;;1.73;;
7545;SDS011;3814;51.454;12.616;2023-03-24T01:06:26;4.38;;;1.98;;
7545;SDS011;3814;51.454;12.616;2023-03-24T01:08:51;5.00;;;2.00;;
7545;SDS011;3814;51.454;12.616;2023-03-24T01:11:18;4.05;;;2.20;;
7545;SDS011;3814;51.454;12.616;2023-03-24T01:13:45;3.30;;;1.90;;
7545;SDS011;3814;51.454;12.616;2023-03-24T01:16:10;3.05;;;1.67;;
7545;SDS011;3814;51.454;12.616;2023-03-24T01:18:37;3.00;;;1.80;;
7545;SDS011;3814;51.454;12.616;2023-03-24T01:21:04;6.45;;;2.25;;
7545;SDS011;3814;51.454;12.616;2023-03-24T01:23:30;4.30;;;1.80;;
7545;SDS011;3814;51.454;12.616;2023-03-24T01:25:56;3.97;;;2.10;;
7545;SDS011;3814;51.454;12.616;2023-03-24T01:28:22;3.58;;;2.17;;
7545;SDS011;3814;51.454;12.616;2023-03-24T01:30:49;3.78;;;2.10;;
7545;SDS011;3814;51.454;12.616;2023-03-24T01:33:15;3.15;;;2.00;;
7545;SDS011;3814;51.454;12.616;2023-03-24T01:35:41;4.25;;;2.28;;
7545;SDS011;3814;51.454;12.616;2023-03-24T01:38:06;4.47;;;2.30;;
7545;SDS011;3814;51.454;12.616;2023-03-24T01:40:34;5.70;;;2.28;;
7545;SDS011;3814;51.454;12.616;2023-03-24T01:43:00;4.07;;;2.20;;
7545;SDS011;3814;51.454;12.616;2023-03-24T01:48:12;4.65;;;2.63;;
7545;SDS011;3814;51.454;12.616;2023-03-24T01:50:41;5.20;;;2.42;;
7545;SDS011;3814;51.454;12.616;2023-03-24T01:53:08;4.55;;;2.47;;
7545;SDS011;3814;51.454;12.616;2023-03-24T01:55:34;4.93;;;2.58;;
7545;SDS011;3814;51.454;12.616;2023-03-24T01:58:00;5.90;;;2.80;;
7545;SDS011;3814;51.454;12.616;2023-03-24T02:00:26;6.22;;;3.20;;
7545;SDS011;3814;51.454;12.616;2023-03-24T02:02:54;5.30;;;3.45;;
7545;SDS011;3814;51.454;12.616;2023-03-24T02:05:23;5.95;;;3.58;;
7545;SDS011;3814;51.454;12.616;2023-03-24T02:07:52;6.75;;;3.60;;
7545;SDS011;3814;51.454;12.616;2023-03-24T02:10:23;5.88;;;3.60;;
7545;SDS011;3814;51.454;12.616;2023-03-24T02:12:49;8.18;;;4.07;;
7545;SDS011;3814;51.454;12.616;2023-03-24T02:15:16;7.32;;;3.53;;
7545;SDS011;3814;51.454;12.616;2023-03-24T02:32:29;8.75;;;4.43;;
7545;SDS011;3814;51.454;12.616;2023-03-24T02:38:07;7.72;;;3.85;;
7545;SDS011;3814;51.454;12.616;2023-03-24T02:41:16;8.25;;;4.10;;
7545;SDS011;3814;51.454;12.616;2023-03-24T02:46:23;6.68;;;3.70;;
7545;SDS011;3814;51.454;12.616;2023-03-24T02:51:34;7.85;;;3.95;;
7545;SDS011;3814;51.454;12.616;2023-03-24T02:54:10;7.28;;;3.60;;
7545;SDS011;3814;51.454;12.616;2023-03-24T02:56:53;8.93;;;4.05;;
7545;SDS011;3814;51.454;12.616;2023-03-24T02:59:23;6.00;;;3.55;;
7545;SDS011;3814;51.454;12.616;2023-03-24T03:01:57;8.55;;;3.75;;
7545;SDS011;3814;51.454;12.616;2023-03-24T03:04:33;7.00;;;3.90;;
7545;SDS011;3814;51.454;12.616;2023-03-24T03:07:03;7.65;;;3.67;;
7545;SDS011;3814;51.454;12.616;2023-03-24T03:09:33;8.73;;;3.80;;
7545;SDS011;3814;51.454;12.616;2023-03-24T03:12:00;8.82;;;4.07;;
7545;SDS011;3814;51.454;12.616;2023-03-24T03:14:34;9.45;;;4.40;;
7545;SDS011;3814;51.454;12.616;2023-03-24T03:17:07;8.18;;;3.92;;
7545;SDS011;3814;51.454;12.616;2023-03-24T03:19:39;7.00;;;4.03;;
7545;SDS011;3814;51.454;12.616;2023-03-24T03:22:09;8.40;;;4.65;;
7545;SDS011;3814;51.454;12.616;2023-03-24T03:24:38;10.57;;;4.45;;
7545;SDS011;3814;51.454;12.616;2023-03-24T03:27:13;7.43;;;3.92;;
7545;SDS011;3814;51.454;12.616;2023-03-24T03:29:44;7.82;;;3.92;;
7545;SDS011;3814;51.454;12.616;2023-03-24T03:32:13;8.27;;;4.18;;
7545;SDS011;3814;51.454;12.616;2023-03-24T03:37:25;6.85;;;4.10;;
7545;SDS011;3814;51.454;12.616;2023-03-24T03:39:58;9.98;;;4.13;;
7545;SDS011;3814;51.454;12.616;2023-03-24T03:42:33;6.60;;;3.85;;
7545;SDS011;3814;51.454;12.616;2023-03-24T03:44:58;6.57;;;3.55;;
7545;SDS011;3814;51.454;12.616;2023-03-24T03:47:23;8.02;;;3.78;;
7545;SDS011;3814;51.454;12.616;2023-03-24T03:49:49;7.53;;;3.85;;
7545;SDS011;3814;51.454;12.616;2023-03-24T03:52:14;7.95;;;3.60;;
7545;SDS011;3814;51.454;12.616;2023-03-24T03:54:40;6.88;;;3.63;;
7545;SDS011;3814;51.454;12.616;2023-03-24T03:57:06;6.15;;;3.60;;
7545;SDS011;3814;51.454;12.616;2023-03-24T03:59:33;6.68;;;4.07;;
7545;SDS011;3814;51.454;12.616;2023-03-24T04:02:01;6.28;;;3.85;;
7545;SDS011;3814;51.454;12.616;2023-03-24T04:07:36;7.55;;;4.20;;
7545;SDS011;3814;51.454;12.616;2023-03-24T04:10:17;6.22;;;3.58;;
7545;SDS011;3814;51.454;12.616;2023-03-24T04:15:50;6.28;;;3.60;;
7545;SDS011;3814;51.454;12.616;2023-03-24T04:18:29;6.78;;;3.47;;
7545;SDS011;3814;51.454;12.616;2023-03-24T04:21:09;9.13;;;3.53;;
7545;SDS011;3814;51.454;12.616;2023-03-24T04:26:23;8.00;;;3.70;;
7545;SDS011;3814;51.454;12.616;2023-03-24T04:31:43;7.47;;;3.60;;
7545;SDS011;3814;51.454;12.616;2023-03-24T04:34:18;6.60;;;3.40;;
7545;SDS011;3814;51.454;12.616;2023-03-24T04:36:50;6.75;;;3.25;;
7545;SDS011;3814;51.454;12.616;2023-03-24T04:39:19;7.78;;;3.70;;
7545;SDS011;3814;51.454;12.616;2023-03-24T04:41:52;6.82;;;3.70;;
7545;SDS011;3814;51.454;12.616;2023-03-24T04:44:18;6.43;;;3.35;;
7545;SDS011;3814;51.454;12.616;2023-03-24T04:46:46;7.60;;;3.85;;
7545;SDS011;3814;51.454;12.616;2023-03-24T04:49:13;6.43;;;3.85;;
7545;SDS011;3814;51.454;12.616;2023-03-24T04:51:38;6.78;;;3.35;;
7545;SDS011;3814;51.454;12.616;2023-03-24T04:54:04;6.00;;;3.40;;
7545;SDS011;3814;51.454;12.616;2023-03-24T04:59:01;5.03;;;2.92;;
7545;SDS011;3814;51.454;12.616;2023-03-24T05:01:26;6.13;;;3.33;;
7545;SDS011;3814;51.454;12.616;2023-03-24T05:03:54;5.57;;;3.45;;
7545;SDS011;3814;51.454;12.616;2023-03-24T05:06:20;5.45;;;3.20;;
7545;SDS011;3814;51.454;12.616;2023-03-24T05:08:45;5.55;;;3.05;;
7545;SDS011;3814;51.454;12.616;2023-03-24T05:11:11;5.82;;;3.20;;
7545;SDS011;3814;51.454;12.616;2023-03-24T05:13:36;5.82;;;3.10;;
7545;SDS011;3814;51.454;12.616;2023-03-24T05:16:02;5.85;;;3.38;;
7545;SDS011;3814;51.454;12.616;2023-03-24T05:18:27;6.25;;;3.67;;
7545;SDS011;3814;51.454;12.616;2023-03-24T05:20:52;7.05;;;3.15;;
7545;SDS011;3814;51.454;12.616;2023-03-24T05:23:18;7.28;;;3.92;;
7545;SDS011;3814;51.454;12.616;2023-03-24T05:25:44;7.47;;;3.40;;
7545;SDS011;3814;51.454;12.616;2023-03-24T05:28:10;8.25;;;3.10;;
7545;SDS011;3814;51.454;12.616;2023-03-24T05:30:36;7.72;;;3.00;;
7545;SDS011;3814;51.454;12.616;2023-03-24T05:33:01;5.63;;;3.13;;
7545;SDS011;3814;51.454;12.616;2023-03-24T05:35:26;5.70;;;3.00;;
7545;SDS011;3814;51.454;12.616;2023-03-24T05:37:51;6.93;;;2.88;;
7545;SDS011;3814;51.454;12.616;2023-03-24T05:40:17;6.15;;;2.72;;
7545;SDS011;3814;51.454;12.616;2023-03-24T05:42:42;6.88;;;2.70;;
7545;SDS011;3814;51.454;12.616;2023-03-24T05:45:08;7.35;;;2.97;;
7545;SDS011;3814;51.454;12.616;2023-03-24T05:47:34;6.35;;;3.17;;
7545;SDS011;3814;51.454;12.616;2023-03-24T05:49:59;7.40;;;2.92;;
7545;SDS011;3814;51.454;12.616;2023-03-24T05:52:26;4.75;;;2.95;;
7545;SDS011;3814;51.454;12.616;2023-03-24T05:54:51;5.82;;;2.92;;
7545;SDS011;3814;51.454;12.616;2023-03-24T05:57:16;5.13;;;3.20;;
7545;SDS011;3814;51.454;12.616;2023-03-24T05:59:43;5.45;;;2.80;;
7545;SDS011;3814;51.454;12.616;2023-03-24T06:02:08;5.50;;;2.80;;
7545;SDS011;3814;51.454;12.616;2023-03-24T06:04:33;4.60;;;3.13;;
7545;SDS011;3814;51.454;12.616;2023-03-24T06:06:59;7.72;;;3.28;;
7545;SDS011;3814;51.454;12.616;2023-03-24T06:09:25;5.03;;;2.65;;
7545;SDS011;3814;51.454;12.616;2023-03-24T06:11:53;5.95;;;2.75;;
7545;SDS011;3814;51.454;12.616;2023-03-24T06:14:19;5.15;;;2.80;;
7545;SDS011;3814;51.454;12.616;2023-03-24T06:16:45;4.80;;;2.65;;
7545;SDS011;3814;51.454;12.616;2023-03-24T06:19:10;4.78;;;2.75;;
7545;SDS011;3814;51.454;12.616;2023-03-24T06:21:35;5.00;;;2.90;;
7545;SDS011;3814;51.454;12.616;2023-03-24T06:24:01;4.80;;;2.78;;
7545;SDS011;3814;51.454;12.616;2023-03-24T06:26:27;5.07;;;2.70;;
7545;SDS011;3814;51.454;12.616;2023-03-24T06:28:54;5.03;;;2.72;;
7545;SDS011;3814;51.454;12.616;2023-03-24T06:31:20;5.65;;;3.13;;
7545;SDS011;3814;51.454;12.616;2023-03-24T06:33:46;5.72;;;2.92;;
7545;SDS011;3814;51.454;12.616;2023-03-24T06:36:13;5.60;;;2.80;;
7545;SDS011;3814;51.454;12.616;2023-03-24T06:38:39;5.82;;;3.03;;
7545;SDS011;3814;51.454;12.616;2023-03-24T06:41:05;5.40;;;3.00;;
7545;SDS011;3814;51.454;12.616;2023-03-24T06:43:31;5.85;;;2.80;;
7545;SDS011;3814;51.454;12.616;2023-03-24T06:45:57;5.28;;;2.85;;
7545;SDS011;3814;51.454;12.616;2023-03-24T06:48:23;4.38;;;2.63;;
7545;SDS011;3814;51.454;12.616;2023-03-24T06:50:50;5.15;;;2.92;;
7545;SDS011;3814;51.454;12.616;2023-03-24T06:53:16;4.20;;;2.65;;
7545;SDS011;3814;51.454;12.616;2023-03-24T06:55:41;4.85;;;2.78;;
7545;SDS011;3814;51.454;12.616;2023-03-24T06:58:06;5.05;;;2.63;;
7545;SDS011;3814;51.454;12.616;2023-03-24T07:00:32;4.68;;;2.72;;
7545;SDS011;3814;51.454;12.616;2023-03-24T07:02:58;5.78;;;2.90;;
7545;SDS011;3814;51.454;12.616;2023-03-24T07:05:26;6.15;;;3.00;;
7545;SDS011;3814;51.454;12.616;2023-03-24T07:07:51;5.18;;;3.03;;
7545;SDS011;3814;51.454;12.616;2023-03-24T07:10:16;5.75;;;2.72;;
7545;SDS011;3814;51.454;12.616;2023-03-24T07:12:43;5.15;;;2.47;;
7545;SDS011;3814;51.454;12.616;2023-03-24T07:15:09;6.80;;;2.80;;
7545;SDS011;3814;51.454;12.616;2023-03-24T07:17:35;4.40;;;2.55;;
7545;SDS011;3814;51.454;12.616;2023-03-24T07:20:00;4.85;;;2.90;;
7545;SDS011;3814;51.454;12.616;2023-03-24T07:22:26;6.40;;;2.60;;
7545;SDS011;3814;51.454;12.616;2023-03-24T07:24:52;4.20;;;2.60;;
7545;SDS011;3814;51.454;12.616;2023-03-24T07:27:17;5.20;;;2.83;;
7545;SDS011;3814;51.454;12.616;2023-03-24T07:29:42;7.10;;;2.47;;
7545;SDS011;3814;51.454;12.616;2023-03-24T07:32:08;4.75;;;2.17;;
7545;SDS011;3814;51.454;12.616;2023-03-24T07:34:33;8.95;;;2.75;;
7545;SDS011;3814;51.454;12.616;2023-03-24T07:37:00;7.80;;;2.95;;
7545;SDS011;3814;51.454;12.616;2023-03-24T07:39:26;4.32;;;2.55;;
7545;SDS011;3814;51.454;12.616;2023-03-24T07:41:51;4.47;;;2.70;;
7545;SDS011;3814;51.454;12.616;2023-03-24T07:44:17;4.63;;;2.90;;
7545;SDS011;3814;51.454;12.616;2023-03-24T07:46:42;5.07;;;2.70;;
7545;SDS011;3814;51.454;12.616;2023-03-24T07:49:08;7.28;;;2.72;;
7545;SDS011;3814;51.454;12.616;2023-03-24T07:51:33;6.18;;;2.90;;
7545;SDS011;3814;51.454;12.616;2023-03-24T07:53:58;4.60;;;2.63;;
7545;SDS011;3814;51.454;12.616;2023-03-24T07:56:23;4.97;;;2.35;;
7545;SDS011;3814;51.454;12.616;2023-03-24T07:58:49;5.95;;;2.60;;
7545;SDS011;3814;51.454;12.616;2023-03-24T08:01:14;3.75;;;2.20;;
7545;SDS011;3814;51.454;12.616;2023-03-24T08:03:40;4.78;;;2.25;;
7545;SDS011;3814;51.454;12.616;2023-03-24T08:06:08;5.07;;;2.40;;
7545;SDS011;3814;51.454;12.616;2023-03-24T08:08:34;4.35;;;2.42;;
7545;SDS011;3814;51.454;12.616;2023-03-24T08:11:00;4.60;;;2.33;;
7545;SDS011;3814;51.454;12.616;2023-03-24T08:13:26;4.63;;;2.33;;
7545;SDS011;3814;51.454;12.616;2023-03-24T08:15:51;4.78;;;2.42;;
7545;SDS011;3814;51.454;12.616;2023-03-24T08:18:17;4.00;;;2.33;;
7545;SDS011;3814;51.454;12.616;2023-03-24T08:20:44;4.53;;;2.22;;
7545;SDS011;3814;51.454;12.616;2023-03-24T08:23:10;3.83;;;2.30;;
7545;SDS011;3814;51.454;12.616;2023-03-24T08:25:35;5.38;;;2.25;;
7545;SDS011;3814;51.454;12.616;2023-03-24T08:28:01;5.32;;;2.70;;
7545;SDS011;3814;51.454;12.616;2023-03-24T08:30:29;4.28;;;2.22;;
7545;SDS011;3814;51.454;12.616;2023-03-24T08:32:55;4.65;;;2.20;;
7545;SDS011;3814;51.454;12.616;2023-03-24T08:35:24;3.25;;;1.85;;
7545;SDS011;3814;51.454;12.616;2023-03-24T08:37:51;3.78;;;1.95;;
7545;SDS011;3814;51.454;12.616;2023-03-24T08:40:18;3.53;;;2.00;;
7545;SDS011;3814;51.454;12.616;2023-03-24T08:42:47;3.28;;;1.88;;
7545;SDS011;3814;51.454;12.616;2023-03-24T08:45:14;3.53;;;1.70;;
7545;SDS011;3814;51.454;12.616;2023-03-24T08:47:40;3.28;;;1.90;;
7545;SDS011;3814;51.454;12.616;2023-03-24T08:50:07;3.10;;;1.70;;
7545;SDS011;3814;51.454;12.616;2023-03-24T08:52:34;2.92;;;1.63;;
7545;SDS011;3814;51.454;12.616;2023-03-24T08:55:00;5.63;;;2.33;;
7545;SDS011;3814;51.454;12.616;2023-03-24T08:57:25;3.17;;;1.42;;
7545;SDS011;3814;51.454;12.616;2023-03-24T08:59:50;2.72;;;1.58;;
7545;SDS011;3814;51.454;12.616;2023-03-24T09:02:16;2.35;;;1.35;;
7545;SDS011;3814;51.454;12.616;2023-03-24T09:04:41;2.65;;;1.40;;
7545;SDS011;3814;51.454;12.616;2023-03-24T09:07:08;4.03;;;1.58;;
7545;SDS011;3814;51.454;12.616;2023-03-24T09:09:33;3.60;;;1.40;;
7545;SDS011;3814;51.454;12.616;2023-03-24T09:11:59;4.80;;;1.80;;
7545;SDS011;3814;51.454;12.616;2023-03-24T09:14:24;2.97;;;1.23;;
7545;SDS011;3814;51.454;12.616;2023-03-24T09:16:50;2.47;;;1.42;;
7545;SDS011;3814;51.454;12.616;2023-03-24T09:19:16;3.45;;;1.83;;
7545;SDS011;3814;51.454;12.616;2023-03-24T09:21:43;2.20;;;1.33;;
7545;SDS011;3814;51.454;12.616;2023-03-24T09:24:09;2.70;;;1.35;;
7545;SDS011;3814;51.454;12.616;2023-03-24T09:26:34;2.28;;;1.20;;
7545;SDS011;3814;51.454;12.616;2023-03-24T09:29:00;3.05;;;1.42;;
7545;SDS011;3814;51.454;12.616;2023-03-24T09:31:26;1.98;;;1.30;;
7545;SDS011;3814;51.454;12.616;2023-03-24T09:33:51;2.58;;;1.20;;
7545;SDS011;3814;51.454;12.616;2023-03-24T09:36:16;2.45;;;1.23;;
7545;SDS011;3814;51.454;12.616;2023-03-24T09:38:41;2.25;;;1.40;;
7545;SDS011;3814;51.454;12.616;2023-03-24T09:41:14;3.90;;;1.30;;
7545;SDS011;3814;51.454;12.616;2023-03-24T09:43:53;1.63;;;1.10;;
7545;SDS011;3814;51.454;12.616;2023-03-24T09:46:37;2.50;;;1.10;;
7545;SDS011;3814;51.454;12.616;2023-03-24T09:49:11;2.05;;;1.20;;
7545;SDS011;3814;51.454;12.616;2023-03-24T09:51:39;2.22;;;1.23;;
7545;SDS011;3814;51.454;12.616;2023-03-24T09:56:34;2.50;;;1.30;;
7545;SDS011;3814;51.454;12.616;2023-03-24T10:01:28;2.47;;;1.30;;
7545;SDS011;3814;51.454;12.616;2023-03-24T10:03:55;1.85;;;1.20;;
7545;SDS011;3814;51.454;12.616;2023-03-24T10:06:22;2.40;;;1.30;;
7545;SDS011;3814;51.454;12.616;2023-03-24T10:11:26;2.83;;;1.40;;
7545;SDS011;3814;51.454;12.616;2023-03-24T10:14:06;1.65;;;1.17;;
7545;SDS011;3814;51.454;12.616;2023-03-24T10:24:53;1.95;;;1.42;;
7545;SDS011;3814;51.454;12.616;2023-03-24T10:27:26;4.47;;;1.70;;
7545;SDS011;3814;51.454;12.616;2023-03-24T10:29:58;2.40;;;1.45;;
7545;SDS011;3814;51.454;12.616;2023-03-24T10:32:26;3.17;;;1.38;;
7545;SDS011;3814;51.454;12.616;2023-03-24T10:34:55;4.10;;;1.35;;
7545;SDS011;3814;51.454;12.616;2023-03-24T10:37:23;1.77;;;1.35;;
7545;SDS011;3814;51.454;12.616;2023-03-24T10:39:49;3.10;;;1.40;;
7545;SDS011;3814;51.454;12.616;2023-03-24T10:42:16;2.65;;;1.70;;
7545;SDS011;3814;51.454;12.616;2023-03-24T10:44:46;3.05;;;1.60;;
7545;SDS011;3814;51.454;12.616;2023-03-24T10:47:12;2.60;;;1.73;;
7545;SDS011;3814;51.454;12.616;2023-03-24T10:49:41;2.10;;;1.50;;
7545;SDS011;3814;51.454;12.616;2023-03-24T10:52:16;2.90;;;1.52;;
7545;SDS011;3814;51.454;12.616;2023-03-24T10:54:44;2.60;;;1.50;;
7545;SDS011;3814;51.454;12.616;2023-03-24T10:57:17;2.20;;;1.50;;
7545;SDS011;3814;51.454;12.616;2023-03-24T10:59:53;3.63;;;1.90;;
7545;SDS011;3814;51.454;12.616;2023-03-24T11:02:24;2.33;;;1.40;;
7545;SDS011;3814;51.454;12.616;2023-03-24T11:04:53;2.10;;;1.33;;
7545;SDS011;3814;51.454;12.616;2023-03-24T11:07:21;2.47;;;1.52;;
7545;SDS011;3814;51.454;12.616;2023-03-24T11:09:57;1.67;;;0.80;;
7545;SDS011;3814;51.454;12.616;2023-03-24T11:12:39;1.90;;;1.00;;
7545;SDS011;3814;51.454;12.616;2023-03-24T11:17:44;1.50;;;0.90;;
7545;SDS011;3814;51.454;12.616;2023-03-24T11:23:02;3.20;;;0.80;;
7545;SDS011;3814;51.454;12.616;2023-03-24T11:25:31;1.20;;;0.90;;
7545;SDS011;3814;51.454;12.616;2023-03-24T11:27:59;1.40;;;0.90;;
7545;SDS011;3814;51.454;12.616;2023-03-24T11:30:32;1.30;;;0.80;;
7545;SDS011;3814;51.454;12.616;2023-03-24T11:32:58;0.93;;;0.70;;
7545;SDS011;3814;51.454;12.616;2023-03-24T11:35:24;2.10;;;0.93;;
7545;SDS011;3814;51.454;12.616;2023-03-24T11:37:49;1.27;;;0.73;;
7545;SDS011;3814;51.454;12.616;2023-03-24T11:40:17;2.03;;;0.95;;
7545;SDS011;3814;51.454;12.616;2023-03-24T11:42:56;1.17;;;0.70;;
7545;SDS011;3814;51.454;12.616;2023-03-24T11:45:36;1.95;;;0.75;;
7545;SDS011;3814;51.454;12.616;2023-03-24T11:48:09;1.45;;;0.80;;
7545;SDS011;3814;51.454;12.616;2023-03-24T11:50:38;2.50;;;0.82;;
7545;SDS011;3814;51.454;12.616;2023-03-24T11:53:12;1.10;;;0.77;;
7545;SDS011;3814;51.454;12.616;2023-03-24T11:58:39;4.28;;;0.90;;
7545;SDS011;3814;51.454;12.616;2023-03-24T12:04:06;4.15;;;1.30;;
7545;SDS011;3814;51.454;12.616;2023-03-24T12:09:38;1.52;;;1.00;;
7545;SDS011;3814;51.454;12.616;2023-03-24T12:12:20;2.30;;;1.10;;
7545;SDS011;3814;51.454;12.616;2023-03-24T12:17:41;2.35;;;1.10;;
7545;SDS011;3814;51.454;12.616;2023-03-24T12:20:15;2.40;;;0.90;;
7545;SDS011;3814;51.454;12.616;2023-03-24T12:22:57;3.13;;;1.20;;
7545;SDS011;3814;51.454;12.616;2023-03-24T12:28:30;3.22;;;1.00;;
7545;SDS011;3814;51.454;12.616;2023-03-24T12:33:58;2.00;;;1.10;;
7545;SDS011;3814;51.454;12.616;2023-03-24T12:39:27;2.70;;;0.82;;
7545;SDS011;3814;51.454;12.616;2023-03-24T12:42:02;1.80;;;0.85;;
7545;SDS011;3814;51.454;12.616;2023-03-24T12:50:38;3.00;;;0.90;;
7545;SDS011;3814;51.454;12.616;2023-03-24T12:56:03;2.42;;;1.00;;
7545;SDS011;3814;51.454;12.616;2023-03-24T13:01:54;2.58;;;0.95;;
7545;SDS011;3814;51.454;12.616;2023-03-24T13:04:05;1.77;;;0.93;;
7545;SDS011;3814;51.454;12.616;2023-03-24T13:06:38;2.97;;;1.15;;
7545;SDS011;3814;51.454;12.616;2023-03-24T13:11:54;3.08;;;1.30;;
7545;SDS011;3814;51.454;12.616;2023-03-24T13:14:29;3.88;;;1.27;;
7545;SDS011;3814;51.454;12.616;2023-03-24T13:16:59;2.10;;;0.95;;
7545;SDS011;3814;51.454;12.616;2023-03-24T13:19:28;3.80;;;1.20;;
7545;SDS011;3814;51.454;12.616;2023-03-24T13:21:54;2.17;;;1.10;;
7545;SDS011;3814;51.454;12.616;2023-03-24T13:24:20;2.20;;;1.10;;
7545;SDS011;3814;51.454;12.616;2023-03-24T13:26:51;5.05;;;1.00;;
7545;SDS011;3814;51.454;12.616;2023-03-24T13:32:08;4.20;;;0.90;;
7545;SDS011;3814;51.454;12.616;2023-03-24T13:34:39;3.47;;;1.25;;
7545;SDS011;3814;51.454;12.616;2023-03-24T13:39:38;2.20;;;0.90;;
7545;SDS011;3814;51.454;12.616;2023-03-24T13:42:19;1.88;;;1.00;;
7545;SDS011;3814;51.454;12.616;2023-03-24T13:44:53;1.60;;;0.90;;
7545;SDS011;3814;51.454;12.616;2023-03-24T13:47:18;1.67;;;0.98;;
7545;SDS011;3814;51.454;12.616;2023-03-24T13:50:00;2.25;;;1.10;;
7545;SDS011;3814;51.454;12.616;2023-03-24T13:52:38;1.92;;;0.95;;
7545;SDS011;3814;51.454;12.616;2023-03-24T13:55:10;4.15;;;1.20;;
7545;SDS011;3814;51.454;12.616;2023-03-24T13:57:51;3.55;;;1.77;;
7545;SDS011;3814;51.454;12.616;2023-03-24T14:00:21;3.20;;;1.10;;
7545;SDS011;3814;51.454;12.616;2023-03-24T14:02:53;2.10;;;1.00;;
7545;SDS011;3814;51.454;12.616;2023-03-24T14:05:31;7.07;;;3.03;;
7545;SDS011;3814;51.454;12.616;2023-03-24T14:08:31;8.60;;;3.88;;
7545;SDS011;3814;51.454;12.616;2023-03-24T14:10:44;14.98;;;5.70;;
7545;SDS011;3814;51.454;12.616;2023-03-24T14:15:45;12.70;;;5.00;;
7545;SDS011;3814;51.454;12.616;2023-03-24T14:23:21;4.30;;;1.73;;
7545;SDS011;3814;51.454;12.616;2023-03-24T14:25:54;9.82;;;3.70;;
7545;SDS011;3814;51.454;12.616;2023-03-24T14:28:21;12.73;;;4.40;;
7545;SDS011;3814;51.454;12.616;2023-03-24T14:31:08;5.45;;;1.83;;
7545;SDS011;3814;51.454;12.616;2023-03-24T14:36:05;4.85;;;2.38;;
7545;SDS011;3814;51.454;12.616;2023-03-24T14:38:35;3.50;;;1.40;;
7545;SDS011;3814;51.454;12.616;2023-03-24T14:41:44;3.72;;;1.75;;
7545;SDS011;3814;51.454;12.616;2023-03-24T14:43:53;4.20;;;2.00;;
7545;SDS011;3814;51.454;12.616;2023-03-24T14:49:00;3.93;;;1.40;;
7545;SDS011;3814;51.454;12.616;2023-03-24T14:51:32;4.15;;;1.45;;
7545;SDS011;3814;51.454;12.616;2023-03-24T14:54:01;2.92;;;1.42;;
7545;SDS011;3814;51.454;12.616;2023-03-24T14:56:30;3.72;;;1.35;;
7545;SDS011;3814;51.454;12.616;2023-03-24T14:58:59;3.95;;;1.75;;
7545;SDS011;3814;51.454;12.616;2023-03-24T15:01:27;3.60;;;1.50;;
7545;SDS011;3814;51.454;12.616;2023-03-24T15:06:31;4.82;;;1.52;;
7545;SDS011;3814;51.454;12.616;2023-03-24T15:08:57;3.85;;;1.10;;
7545;SDS011;3814;51.454;12.616;2023-03-24T15:11:32;4.35;;;1.38;;
7545;SDS011;3814;51.454;12.616;2023-03-24T15:13:59;3.83;;;1.00;;
7545;SDS011;3814;51.454;12.616;2023-03-24T15:16:33;2.28;;;0.90;;
7545;SDS011;3814;51.454;12.616;2023-03-24T15:21:35;2.58;;;0.85;;
7545;SDS011;3814;51.454;12.616;2023-03-24T15:24:15;2.90;;;0.90;;
7545;SDS011;3814;51.454;12.616;2023-03-24T15:26:47;1.70;;;0.90;;
7545;SDS011;3814;51.454;12.616;2023-03-24T15:29:16;2.15;;;0.73;;
7545;SDS011;3814;51.454;12.616;2023-03-24T15:31:41;2.92;;;0.98;;
7545;SDS011;3814;51.454;12.616;2023-03-24T15:34:24;3.10;;;0.90;;
7545;SDS011;3814;51.454;12.616;2023-03-24T15:36:53;3.00;;;0.82;;
7545;SDS011;3814;51.454;12.616;2023-03-24T15:39:26;3.35;;;1.00;;
7545;SDS011;3814;51.454;12.616;2023-03-24T15:41:53;1.17;;;0.70;;
7545;SDS011;3814;51.454;12.616;2023-03-24T15:44:20;2.97;;;0.80;;
7545;SDS011;3814;51.454;12.616;2023-03-24T15:46:58;3.58;;;0.98;;
7545;SDS011;3814;51.454;12.616;2023-03-24T15:49:25;2.72;;;0.82;;
7545;SDS011;3814;51.454;12.616;2023-03-24T15:51:57;2.47;;;1.20;;
7545;SDS011;3814;51.454;12.616;2023-03-24T15:54:25;3.75;;;1.05;;
7545;SDS011;3814;51.454;12.616;2023-03-24T16:02:47;3.63;;;1.45;;
7545;SDS011;3814;51.454;12.616;2023-03-24T16:05:18;2.83;;;1.48;;
7545;SDS011;3814;51.454;12.616;2023-03-24T16:07:52;3.50;;;1.42;;
7545;SDS011;3814;51.454;12.616;2023-03-24T16:10:28;2.40;;;1.20;;
7545;SDS011;3814;51.454;12.616;2023-03-24T16:15:56;2.70;;;1.20;;
7545;SDS011;3814;51.454;12.616;2023-03-24T16:18:22;2.33;;;1.20;;
7545;SDS011;3814;51.454;12.616;2023-03-24T16:20:50;2.78;;;1.17;;
7545;SDS011;3814;51.454;12.616;2023-03-24T16:23:16;3.70;;;1.23;;
7545;SDS011;3814;51.454;12.616;2023-03-24T16:25:42;2.90;;;1.17;;
7545;SDS011;3814;51.454;12.616;2023-03-24T16:28:09;2.35;;;1.00;;
7545;SDS011;3814;51.454;12.616;2023-03-24T16:30:36;3.67;;;1.27;;
7545;SDS011;3814;51.454;12.616;2023-03-24T16:33:04;3.42;;;1.50;;
7545;SDS011;3814;51.454;12.616;2023-03-24T16:35:29;1.98;;;1.00;;
7545;SDS011;3814;51.454;12.616;2023-03-24T16:37:55;2.45;;;1.60;;
7545;SDS011;3814;51.454;12.616;2023-03-24T16:40:36;3.15;;;1.10;;
7545;SDS011;3814;51.454;12.616;2023-03-24T16:43:03;3.80;;;1.73;;
7545;SDS011;3814;51.454;12.616;2023-03-24T16:45:29;4.20;;;1.80;;
7545;SDS011;3814;51.454;12.616;2023-03-24T16:47:55;3.35;;;1.75;;
7545;SDS011;3814;51.454;12.616;2023-03-24T16:50:35;5.55;;;1.45;;
7545;SDS011;3814;51.454;12.616;2023-03-24T16:53:04;3.35;;;1.48;;
7545;SDS011;3814;51.454;12.616;2023-03-24T16:55:32;4.53;;;1.50;;
7545;SDS011;3814;51.454;12.616;2023-03-24T16:57:57;3.80;;;1.20;;
7545;SDS011;3814;51.454;12.616;2023-03-24T17:00:22;3.85;;;1.58;;
7545;SDS011;3814;51.454;12.616;2023-03-24T17:02:48;4.43;;;2.00;;
7545;SDS011;3814;51.454;12.616;2023-03-24T17:05:16;5.28;;;1.95;;
7545;SDS011;3814;51.454;12.616;2023-03-24T17:07:44;6.03;;;1.95;;
7545;SDS011;3814;51.454;12.616;2023-03-24T17:10:09;3.50;;;1.52;;
7545;SDS011;3814;51.454;12.616;2023-03-24T17:12:34;4.68;;;1.63;;
7545;SDS011;3814;51.454;12.616;2023-03-24T17:15:00;5.07;;;1.92;;
7545;SDS011;3814;51.454;12.616;2023-03-24T17:17:25;8.10;;;2.45;;
7545;SDS011;3814;51.454;12.616;2023-03-24T17:19:50;6.00;;;2.80;;
7545;SDS011;3814;51.454;12.616;2023-03-24T17:22:15;8.43;;;3.05;;